SKW4664 KLIT-KIAH
Flight info
| Callsign | SKW4664 |
|---|---|
| Flight time | 1h 19m |
| Altitude | 36000 |
| Route | LESME FSM OKRAY URH CVE GUSHR3 |
| Aircraft | E75L/M-SDE3GILORVW/S |
Departure
| Time | 2026-04-22 23:05 |
|---|---|
| Airport | Bill & Hillary Clinton National Airport/Adams Field (KLIT) |
Arrival
| Time | 2026-04-23 00:24 |
|---|---|
| Airport | George Bush Intercontinental Airport (KIAH) |
| Time | Latitude | Longitude | Altitude | Speed | Heading |
|---|---|---|---|---|---|
| 2026-04-22 22:48 | 34.73079 | -92.21895 | 265 ft | 0 kts | 264° |
| 2026-04-22 22:57 | 34.73080 | -92.21867 | 265 ft | 4 kts | 266° |
| 2026-04-22 22:57 | 34.73082 | -92.21841 | 265 ft | 4 kts | 287° |
| 2026-04-22 22:57 | 34.73063 | -92.21825 | 265 ft | 4 kts | 350° |
| 2026-04-22 22:57 | 34.73037 | -92.21824 | 265 ft | 4 kts | 8° |
| 2026-04-22 22:58 | 34.73015 | -92.21832 | 265 ft | 2 kts | 28° |
| 2026-04-22 22:58 | 34.72996 | -92.21844 | 265 ft | 1 kts | 28° |
| 2026-04-22 23:01 | 34.73010 | -92.21833 | 265 ft | 6 kts | 40° |
| 2026-04-22 23:01 | 34.73008 | -92.21770 | 266 ft | 10 kts | 114° |
| 2026-04-22 23:01 | 34.72972 | -92.21671 | 261 ft | 16 kts | 114° |
| 2026-04-22 23:01 | 34.72923 | -92.21539 | 265 ft | 18 kts | 114° |
| 2026-04-22 23:02 | 34.72866 | -92.21389 | 265 ft | 21 kts | 116° |
| 2026-04-22 23:02 | 34.72844 | -92.21228 | 264 ft | 20 kts | 55° |
| 2026-04-22 23:02 | 34.72945 | -92.21094 | 264 ft | 23 kts | 46° |
| 2026-04-22 23:02 | 34.73060 | -92.20947 | 264 ft | 25 kts | 47° |
| 2026-04-22 23:03 | 34.73185 | -92.20786 | 264 ft | 27 kts | 47° |
| 2026-04-22 23:03 | 34.73320 | -92.20616 | 264 ft | 29 kts | 46° |
| 2026-04-22 23:03 | 34.73457 | -92.20436 | 264 ft | 27 kts | 55° |
| 2026-04-22 23:03 | 34.73548 | -92.20266 | 263 ft | 21 kts | 60° |
| 2026-04-22 23:04 | 34.73502 | -92.20154 | 259 ft | 13 kts | 149° |
| 2026-04-22 23:04 | 34.73474 | -92.20162 | 260 ft | 1 kts | 225° |
| 2026-04-22 23:04 | 34.73465 | -92.20174 | 260 ft | 3 kts | 226° |
| 2026-04-22 23:04 | 34.73431 | -92.20217 | 260 ft | 22 kts | 226° |
| 2026-04-22 23:05 | 34.73124 | -92.20607 | 261 ft | 104 kts | 226° |
| 2026-04-22 23:05 | 34.72459 | -92.21453 | 394 ft | 163 kts | 226° |
| 2026-04-22 23:05 | 34.71626 | -92.22531 | 1124 ft | 187 kts | 225° |
| 2026-04-22 23:05 | 34.70679 | -92.23737 | 1884 ft | 205 kts | 225° |
| 2026-04-22 23:06 | 34.69657 | -92.25024 | 2704 ft | 214 kts | 223° |
| 2026-04-22 23:06 | 34.68636 | -92.26350 | 3607 ft | 219 kts | 226° |
| 2026-04-22 23:06 | 34.67589 | -92.27750 | 4440 ft | 229 kts | 226° |
| 2026-04-22 23:06 | 34.66457 | -92.29249 | 5054 ft | 251 kts | 226° |
| 2026-04-22 23:07 | 34.65224 | -92.30853 | 5737 ft | 267 kts | 226° |
| 2026-04-22 23:07 | 34.63990 | -92.32544 | 6625 ft | 273 kts | 237° |
| 2026-04-22 23:07 | 34.63431 | -92.34705 | 7592 ft | 271 kts | 268° |
| 2026-04-22 23:07 | 34.63667 | -92.36975 | 8518 ft | 272 kts | 280° |
| 2026-04-22 23:08 | 34.64011 | -92.39242 | 9362 ft | 275 kts | 280° |
| 2026-04-22 23:08 | 34.64339 | -92.41545 | 10129 ft | 279 kts | 280° |
| 2026-04-22 23:08 | 34.64673 | -92.43947 | 10487 ft | 297 kts | 279° |
| 2026-04-22 23:08 | 34.65027 | -92.46472 | 10971 ft | 308 kts | 280° |
| 2026-04-22 23:09 | 34.65735 | -92.48938 | 11515 ft | 317 kts | 301° |
| 2026-04-22 23:09 | 34.67163 | -92.51017 | 12138 ft | 323 kts | 313° |
| 2026-04-22 23:09 | 34.68699 | -92.53005 | 12973 ft | 324 kts | 310° |
| 2026-04-22 23:09 | 34.70039 | -92.55228 | 13707 ft | 330 kts | 301° |
| 2026-04-22 23:10 | 34.71058 | -92.57726 | 14544 ft | 330 kts | 292° |
| 2026-04-22 23:10 | 34.71824 | -92.60331 | 15313 ft | 332 kts | 285° |
| 2026-04-22 23:10 | 34.72258 | -92.63096 | 16145 ft | 333 kts | 277° |
| 2026-04-22 23:10 | 34.72445 | -92.65974 | 16812 ft | 338 kts | 273° |
| 2026-04-22 23:11 | 34.72523 | -92.68794 | 17647 ft | 339 kts | 272° |
| 2026-04-22 23:11 | 34.72570 | -92.71679 | 18293 ft | 346 kts | 271° |
| 2026-04-22 23:11 | 34.72606 | -92.74620 | 18871 ft | 349 kts | 271° |
| 2026-04-22 23:11 | 34.72636 | -92.77574 | 19502 ft | 354 kts | 271° |
| 2026-04-22 23:12 | 34.72666 | -92.80570 | 20179 ft | 357 kts | 271° |
| 2026-04-22 23:12 | 34.72695 | -92.83602 | 20908 ft | 359 kts | 271° |
| 2026-04-22 23:12 | 34.72722 | -92.86665 | 21549 ft | 364 kts | 271° |
| 2026-04-22 23:12 | 34.72750 | -92.89750 | 22260 ft | 365 kts | 271° |
| 2026-04-22 23:13 | 34.72779 | -92.92867 | 22766 ft | 372 kts | 271° |
| 2026-04-22 23:13 | 34.72805 | -92.96022 | 23374 ft | 376 kts | 270° |
| 2026-04-22 23:13 | 34.72832 | -92.99216 | 23907 ft | 379 kts | 270° |
| 2026-04-22 23:13 | 34.72857 | -93.02433 | 24415 ft | 383 kts | 270° |
| 2026-04-22 23:14 | 34.72882 | -93.05681 | 24898 ft | 385 kts | 270° |
| 2026-04-22 23:14 | 34.72906 | -93.08960 | 25376 ft | 390 kts | 270° |
| 2026-04-22 23:14 | 34.72930 | -93.12282 | 25828 ft | 394 kts | 270° |
| 2026-04-22 23:14 | 34.72953 | -93.15634 | 26202 ft | 400 kts | 270° |
| 2026-04-22 23:15 | 34.72974 | -93.19031 | 26687 ft | 403 kts | 270° |
| 2026-04-22 23:15 | 34.72995 | -93.22455 | 27110 ft | 407 kts | 270° |
| 2026-04-22 23:15 | 34.73017 | -93.25866 | 27527 ft | 411 kts | 270° |
| 2026-04-22 23:15 | 34.73036 | -93.29351 | 27949 ft | 415 kts | 270° |
| 2026-04-22 23:16 | 34.73055 | -93.32869 | 28361 ft | 418 kts | 270° |
| 2026-04-22 23:16 | 34.73073 | -93.36422 | 28753 ft | 422 kts | 270° |
| 2026-04-22 23:16 | 34.73091 | -93.40001 | 29139 ft | 425 kts | 270° |
| 2026-04-22 23:16 | 34.73107 | -93.43620 | 29519 ft | 429 kts | 270° |
| 2026-04-22 23:17 | 34.73122 | -93.47262 | 29888 ft | 432 kts | 270° |
| 2026-04-22 23:17 | 34.73137 | -93.50913 | 30271 ft | 434 kts | 270° |
| 2026-04-22 23:17 | 34.73149 | -93.54591 | 30613 ft | 436 kts | 270° |
| 2026-04-22 23:17 | 34.73160 | -93.58291 | 30930 ft | 439 kts | 270° |
| 2026-04-22 23:18 | 34.73171 | -93.62001 | 31292 ft | 440 kts | 270° |
| 2026-04-22 23:18 | 34.73181 | -93.65728 | 31637 ft | 441 kts | 270° |
| 2026-04-22 23:18 | 34.73190 | -93.69461 | 31930 ft | 443 kts | 270° |
| 2026-04-22 23:18 | 34.73200 | -93.73215 | 32230 ft | 446 kts | 269° |
| 2026-04-22 23:19 | 34.73205 | -93.76980 | 32611 ft | 445 kts | 270° |
| 2026-04-22 23:19 | 34.73212 | -93.80728 | 33072 ft | 442 kts | 269° |
| 2026-04-22 23:19 | 34.73215 | -93.84451 | 33513 ft | 440 kts | 269° |
| 2026-04-22 23:19 | 34.73217 | -93.88162 | 33894 ft | 439 kts | 269° |
| 2026-04-22 23:20 | 34.73219 | -93.91871 | 34208 ft | 439 kts | 269° |
| 2026-04-22 23:20 | 34.73219 | -93.95574 | 34540 ft | 437 kts | 269° |
| 2026-04-22 23:20 | 34.73218 | -93.99268 | 34873 ft | 436 kts | 269° |
| 2026-04-22 23:20 | 34.73215 | -94.02948 | 35168 ft | 435 kts | 269° |
| 2026-04-22 23:21 | 34.73212 | -94.06629 | 35448 ft | 435 kts | 269° |
| 2026-04-22 23:21 | 34.73207 | -94.10305 | 35764 ft | 434 kts | 269° |
| 2026-04-22 23:21 | 34.73203 | -94.13965 | 36068 ft | 434 kts | 269° |
| 2026-04-22 23:21 | 34.73198 | -94.17674 | 36052 ft | 443 kts | 269° |
| 2026-04-22 23:22 | 34.73182 | -94.25226 | 35929 ft | 455 kts | 268° |
| 2026-04-22 23:22 | 34.73158 | -94.32918 | 35953 ft | 456 kts | 268° |
| 2026-04-22 23:23 | 34.73135 | -94.40635 | 35953 ft | 457 kts | 268° |
| 2026-04-22 23:23 | 34.73106 | -94.48356 | 35951 ft | 457 kts | 268° |
| 2026-04-22 23:24 | 34.73068 | -94.56070 | 35939 ft | 456 kts | 268° |
| 2026-04-22 23:24 | 34.73029 | -94.63796 | 35945 ft | 456 kts | 268° |
| 2026-04-22 23:25 | 34.72995 | -94.70201 | 35952 ft | 456 kts | 267° |
| 2026-04-22 23:25 | 34.72931 | -94.79176 | 35950 ft | 456 kts | 268° |
| 2026-04-22 23:26 | 34.72882 | -94.86885 | 35953 ft | 456 kts | 267° |
| 2026-04-22 23:26 | 34.72831 | -94.93339 | 35947 ft | 456 kts | 268° |
| 2026-04-22 23:27 | 34.72769 | -95.01030 | 35942 ft | 454 kts | 267° |
| 2026-04-22 23:27 | 34.72694 | -95.08665 | 35942 ft | 454 kts | 268° |
| 2026-04-22 23:28 | 34.72622 | -95.16337 | 35940 ft | 454 kts | 267° |
| 2026-04-22 23:28 | 34.72539 | -95.24012 | 35937 ft | 454 kts | 267° |
| 2026-04-22 23:29 | 34.72459 | -95.31691 | 35939 ft | 454 kts | 267° |
| 2026-04-22 23:29 | 34.72381 | -95.39334 | 35934 ft | 451 kts | 267° |
| 2026-04-22 23:30 | 34.72287 | -95.46962 | 35926 ft | 451 kts | 267° |
| 2026-04-22 23:30 | 34.72190 | -95.54598 | 35927 ft | 452 kts | 267° |
| 2026-04-22 23:31 | 34.72091 | -95.62233 | 35925 ft | 451 kts | 267° |
| 2026-04-22 23:31 | 34.71066 | -95.69658 | 35926 ft | 446 kts | 243° |
| 2026-04-22 23:32 | 34.69354 | -95.72768 | 35943 ft | 443 kts | 226° |
| 2026-04-22 23:32 | 34.67018 | -95.75197 | 35984 ft | 442 kts | 217° |
| 2026-04-22 23:32 | 34.62096 | -95.79599 | 35908 ft | 442 kts | 216° |
| 2026-04-22 23:33 | 34.57128 | -95.84013 | 35912 ft | 444 kts | 216° |
| 2026-04-22 23:33 | 34.52152 | -95.88438 | 35918 ft | 443 kts | 216° |
| 2026-04-22 23:34 | 34.47172 | -95.92861 | 35912 ft | 443 kts | 216° |
| 2026-04-22 23:34 | 34.42191 | -95.97279 | 35908 ft | 443 kts | 216° |
| 2026-04-22 23:35 | 34.37215 | -96.01686 | 35910 ft | 444 kts | 216° |
| 2026-04-22 23:35 | 34.32228 | -96.06097 | 35915 ft | 444 kts | 216° |
| 2026-04-22 23:36 | 34.27222 | -96.10516 | 35907 ft | 445 kts | 217° |
| 2026-04-22 23:36 | 34.22262 | -96.14889 | 35906 ft | 444 kts | 216° |
| 2026-04-22 23:37 | 34.17266 | -96.19289 | 35910 ft | 444 kts | 217° |
| 2026-04-22 23:37 | 34.12264 | -96.23683 | 35916 ft | 445 kts | 217° |
| 2026-04-22 23:38 | 34.07265 | -96.28072 | 35925 ft | 445 kts | 217° |
| 2026-04-22 23:38 | 34.02256 | -96.32461 | 35926 ft | 446 kts | 217° |
| 2026-04-22 23:39 | 33.97227 | -96.36863 | 35923 ft | 447 kts | 217° |
| 2026-04-22 23:39 | 33.91840 | -96.40564 | 35943 ft | 449 kts | 204° |
| 2026-04-22 23:40 | 33.86058 | -96.43417 | 35921 ft | 449 kts | 203° |
| 2026-04-22 23:40 | 33.80270 | -96.46247 | 35917 ft | 450 kts | 203° |
| 2026-04-22 23:41 | 33.74451 | -96.49103 | 35893 ft | 455 kts | 204° |
| 2026-04-22 23:41 | 33.68626 | -96.51959 | 35896 ft | 455 kts | 204° |
| 2026-04-22 23:42 | 33.62751 | -96.54834 | 35900 ft | 456 kts | 204° |
| 2026-04-22 23:42 | 33.56883 | -96.57701 | 35911 ft | 455 kts | 204° |
| 2026-04-22 23:43 | 33.51010 | -96.60567 | 35911 ft | 456 kts | 204° |
| 2026-04-22 23:43 | 33.45111 | -96.63441 | 35901 ft | 458 kts | 204° |
| 2026-04-22 23:44 | 33.39213 | -96.66311 | 35895 ft | 458 kts | 204° |
| 2026-04-22 23:44 | 33.33309 | -96.69179 | 35891 ft | 458 kts | 204° |
| 2026-04-22 23:45 | 33.27399 | -96.72045 | 35890 ft | 458 kts | 204° |
| 2026-04-22 23:45 | 33.21495 | -96.74905 | 35892 ft | 458 kts | 204° |
| 2026-04-22 23:46 | 33.15623 | -96.77745 | 35891 ft | 458 kts | 204° |
| 2026-04-22 23:46 | 33.09721 | -96.80596 | 35888 ft | 458 kts | 204° |
| 2026-04-22 23:47 | 33.03807 | -96.83448 | 35900 ft | 458 kts | 204° |
| 2026-04-22 23:47 | 32.97898 | -96.86294 | 35889 ft | 458 kts | 205° |
| 2026-04-22 23:48 | 32.91967 | -96.89125 | 35890 ft | 460 kts | 201° |
| 2026-04-22 23:48 | 32.88831 | -96.89924 | 35885 ft | 467 kts | 186° |
| 2026-04-22 23:48 | 32.85583 | -96.89605 | 35911 ft | 471 kts | 171° |
| 2026-04-22 23:49 | 32.79197 | -96.87743 | 35851 ft | 472 kts | 167° |
| 2026-04-22 23:49 | 32.72821 | -96.85817 | 35870 ft | 473 kts | 168° |
| 2026-04-22 23:50 | 32.66430 | -96.83940 | 35874 ft | 475 kts | 168° |
| 2026-04-22 23:50 | 32.60049 | -96.82074 | 35877 ft | 475 kts | 168° |
| 2026-04-22 23:51 | 32.53630 | -96.80207 | 35879 ft | 475 kts | 168° |
| 2026-04-22 23:51 | 32.47208 | -96.78376 | 35890 ft | 475 kts | 168° |
| 2026-04-22 23:52 | 32.40777 | -96.76543 | 35899 ft | 477 kts | 169° |
| 2026-04-22 23:52 | 32.34314 | -96.74701 | 35880 ft | 477 kts | 169° |
| 2026-04-22 23:53 | 32.27855 | -96.72862 | 35881 ft | 477 kts | 169° |
| 2026-04-22 23:53 | 32.21403 | -96.71028 | 35879 ft | 477 kts | 169° |
| 2026-04-22 23:54 | 32.14943 | -96.69194 | 35893 ft | 478 kts | 169° |
| 2026-04-22 23:54 | 32.08516 | -96.67372 | 35881 ft | 478 kts | 169° |
| 2026-04-22 23:55 | 32.02042 | -96.65539 | 35887 ft | 478 kts | 169° |
| 2026-04-22 23:55 | 31.95569 | -96.63709 | 35890 ft | 478 kts | 169° |
| 2026-04-22 23:56 | 31.89092 | -96.61881 | 35879 ft | 479 kts | 169° |
| 2026-04-22 23:56 | 31.82602 | -96.60052 | 35883 ft | 479 kts | 169° |
| 2026-04-22 23:57 | 31.76118 | -96.58227 | 35883 ft | 479 kts | 169° |
| 2026-04-22 23:57 | 31.69635 | -96.56406 | 35882 ft | 479 kts | 169° |
| 2026-04-22 23:58 | 31.63259 | -96.54611 | 35844 ft | 453 kts | 169° |
| 2026-04-22 23:58 | 31.60265 | -96.53767 | 35872 ft | 432 kts | 170° |
| 2026-04-22 23:58 | 31.57399 | -96.52962 | 35886 ft | 416 kts | 170° |
| 2026-04-22 23:59 | 31.51761 | -96.51248 | 35913 ft | 427 kts | 161° |
| 2026-04-22 23:59 | 31.46386 | -96.48121 | 35954 ft | 433 kts | 154° |
| 2026-04-23 00:00 | 31.38430 | -96.43135 | 35875 ft | 434 kts | 155° |
| 2026-04-23 00:01 | 31.33071 | -96.39856 | 35906 ft | 435 kts | 155° |
| 2026-04-23 00:01 | 31.27710 | -96.36582 | 35890 ft | 434 kts | 155° |
| 2026-04-23 00:02 | 31.22355 | -96.33317 | 35881 ft | 434 kts | 155° |
| 2026-04-23 00:02 | 31.16997 | -96.30054 | 35880 ft | 434 kts | 155° |
| 2026-04-23 00:03 | 31.11638 | -96.26796 | 35760 ft | 436 kts | 155° |
| 2026-04-23 00:03 | 31.08892 | -96.25131 | 34594 ft | 454 kts | 156° |
| 2026-04-23 00:03 | 31.06053 | -96.23410 | 33288 ft | 467 kts | 155° |
| 2026-04-23 00:03 | 31.03133 | -96.21641 | 31827 ft | 478 kts | 155° |
| 2026-04-23 00:04 | 31.00146 | -96.19829 | 30364 ft | 489 kts | 155° |
| 2026-04-23 00:04 | 30.97119 | -96.17939 | 28664 ft | 498 kts | 153° |
| 2026-04-23 00:04 | 30.94075 | -96.15954 | 26897 ft | 505 kts | 153° |
| 2026-04-23 00:04 | 30.91057 | -96.13980 | 25047 ft | 489 kts | 152° |
| 2026-04-23 00:05 | 30.88130 | -96.12076 | 23064 ft | 475 kts | 152° |
| 2026-04-23 00:05 | 30.85279 | -96.10235 | 20967 ft | 461 kts | 152° |
| 2026-04-23 00:05 | 30.82515 | -96.08456 | 19102 ft | 447 kts | 152° |
| 2026-04-23 00:05 | 30.79837 | -96.06736 | 17214 ft | 433 kts | 152° |
| 2026-04-23 00:06 | 30.77244 | -96.05071 | 15426 ft | 419 kts | 152° |
| 2026-04-23 00:06 | 30.74759 | -96.03475 | 14438 ft | 393 kts | 152° |
| 2026-04-23 00:06 | 30.72439 | -96.01987 | 13469 ft | 371 kts | 152° |
| 2026-04-23 00:06 | 30.70291 | -96.00609 | 13014 ft | 342 kts | 152° |
| 2026-04-23 00:07 | 30.68234 | -95.99292 | 12765 ft | 330 kts | 152° |
| 2026-04-23 00:07 | 30.66257 | -95.98028 | 12496 ft | 321 kts | 152° |
| 2026-04-23 00:07 | 30.64310 | -95.96783 | 12240 ft | 317 kts | 152° |
| 2026-04-23 00:07 | 30.62379 | -95.95550 | 11988 ft | 316 kts | 152° |
| 2026-04-23 00:08 | 30.60462 | -95.94324 | 11737 ft | 314 kts | 152° |
| 2026-04-23 00:08 | 30.58553 | -95.93105 | 11488 ft | 312 kts | 152° |
| 2026-04-23 00:08 | 30.56653 | -95.91892 | 11244 ft | 311 kts | 152° |
| 2026-04-23 00:08 | 30.54756 | -95.90682 | 11008 ft | 310 kts | 153° |
| 2026-04-23 00:09 | 30.52873 | -95.89480 | 10777 ft | 308 kts | 152° |
| 2026-04-23 00:09 | 30.51001 | -95.88284 | 10532 ft | 307 kts | 152° |
| 2026-04-23 00:09 | 30.49107 | -95.87170 | 10260 ft | 304 kts | 163° |
| 2026-04-23 00:09 | 30.47067 | -95.86677 | 10236 ft | 298 kts | 176° |
| 2026-04-23 00:10 | 30.44975 | -95.86511 | 10137 ft | 305 kts | 179° |
| 2026-04-23 00:10 | 30.42867 | -95.86365 | 9648 ft | 301 kts | 178° |
| 2026-04-23 00:10 | 30.40803 | -95.86179 | 9197 ft | 295 kts | 177° |
| 2026-04-23 00:10 | 30.38769 | -95.85967 | 8810 ft | 292 kts | 176° |
| 2026-04-23 00:11 | 30.36783 | -95.85745 | 8433 ft | 290 kts | 176° |
| 2026-04-23 00:11 | 30.34783 | -95.85520 | 8053 ft | 287 kts | 176° |
| 2026-04-23 00:11 | 30.32800 | -95.85296 | 7675 ft | 285 kts | 176° |
| 2026-04-23 00:11 | 30.30840 | -95.85076 | 7305 ft | 282 kts | 176° |
| 2026-04-23 00:12 | 30.28895 | -95.84860 | 6913 ft | 275 kts | 176° |
| 2026-04-23 00:12 | 30.27053 | -95.84650 | 6538 ft | 257 kts | 175° |
| 2026-04-23 00:12 | 30.25333 | -95.84453 | 6218 ft | 241 kts | 175° |
| 2026-04-23 00:12 | 30.23718 | -95.84271 | 6006 ft | 226 kts | 175° |
| 2026-04-23 00:13 | 30.22202 | -95.83965 | 5878 ft | 223 kts | 158° |
| 2026-04-23 00:13 | 30.20822 | -95.83132 | 5887 ft | 225 kts | 152° |
| 2026-04-23 00:13 | 30.19465 | -95.82199 | 5875 ft | 229 kts | 150° |
| 2026-04-23 00:13 | 30.18094 | -95.81241 | 5732 ft | 231 kts | 150° |
| 2026-04-23 00:14 | 30.16733 | -95.80298 | 5748 ft | 227 kts | 150° |
| 2026-04-23 00:14 | 30.15372 | -95.79361 | 5783 ft | 226 kts | 150° |
| 2026-04-23 00:14 | 30.14015 | -95.78432 | 5839 ft | 227 kts | 150° |
| 2026-04-23 00:14 | 30.12672 | -95.77513 | 5869 ft | 229 kts | 150° |
| 2026-04-23 00:15 | 30.11302 | -95.76574 | 5863 ft | 227 kts | 151° |
| 2026-04-23 00:15 | 30.09949 | -95.75644 | 5869 ft | 226 kts | 151° |
| 2026-04-23 00:15 | 30.08592 | -95.74716 | 5870 ft | 228 kts | 150° |
| 2026-04-23 00:15 | 30.07231 | -95.73785 | 5893 ft | 228 kts | 150° |
| 2026-04-23 00:16 | 30.06320 | -95.73162 | 5931 ft | 229 kts | 150° |
| 2026-04-23 00:16 | 30.05000 | -95.72257 | 5831 ft | 214 kts | 151° |
| 2026-04-23 00:16 | 30.03766 | -95.71412 | 5790 ft | 199 kts | 150° |
| 2026-04-23 00:16 | 30.02603 | -95.70616 | 5757 ft | 191 kts | 150° |
| 2026-04-23 00:17 | 30.01470 | -95.69842 | 5938 ft | 187 kts | 150° |
| 2026-04-23 00:17 | 30.00326 | -95.69058 | 5977 ft | 195 kts | 148° |
| 2026-04-23 00:17 | 29.99474 | -95.67925 | 5831 ft | 179 kts | 114° |
| 2026-04-23 00:17 | 29.99293 | -95.66581 | 5797 ft | 165 kts | 93° |
| 2026-04-23 00:18 | 29.99282 | -95.65274 | 5769 ft | 160 kts | 92° |
| 2026-04-23 00:18 | 29.99287 | -95.64032 | 5657 ft | 152 kts | 93° |
| 2026-04-23 00:18 | 29.99289 | -95.62745 | 5245 ft | 167 kts | 93° |
| 2026-04-23 00:18 | 29.99288 | -95.61376 | 4782 ft | 174 kts | 92° |
| 2026-04-23 00:19 | 29.99291 | -95.59958 | 4281 ft | 179 kts | 92° |
| 2026-04-23 00:19 | 29.99299 | -95.58516 | 3788 ft | 181 kts | 92° |
| 2026-04-23 00:19 | 29.99304 | -95.57059 | 3318 ft | 182 kts | 92° |
| 2026-04-23 00:19 | 29.99309 | -95.55603 | 3002 ft | 173 kts | 92° |
| 2026-04-23 00:20 | 29.99318 | -95.54340 | 3347 ft | 144 kts | 93° |
| 2026-04-23 00:20 | 29.99326 | -95.53252 | 3925 ft | 144 kts | 92° |
| 2026-04-23 00:20 | 29.99364 | -95.52080 | 3865 ft | 144 kts | 90° |
| 2026-04-23 00:20 | 29.99440 | -95.50917 | 3829 ft | 152 kts | 88° |
| 2026-04-23 00:21 | 29.99593 | -95.49207 | 3828 ft | 172 kts | 88° |
| 2026-04-23 00:21 | 29.99640 | -95.48264 | 3855 ft | 170 kts | 91° |
| 2026-04-23 00:21 | 29.99632 | -95.46976 | 3642 ft | 157 kts | 101° |
| 2026-04-23 00:21 | 29.99531 | -95.45764 | 3276 ft | 156 kts | 103° |
| 2026-04-23 00:22 | 29.99468 | -95.44522 | 2941 ft | 154 kts | 97° |
| 2026-04-23 00:22 | 29.99452 | -95.43301 | 2596 ft | 153 kts | 94° |
| 2026-04-23 00:22 | 29.99426 | -95.42079 | 2303 ft | 148 kts | 96° |
| 2026-04-23 00:22 | 29.99380 | -95.40910 | 1927 ft | 143 kts | 98° |
| 2026-04-23 00:23 | 29.99378 | -95.39799 | 1497 ft | 134 kts | 102° |
| 2026-04-23 00:23 | 29.99348 | -95.38740 | 1055 ft | 129 kts | 104° |
| 2026-04-23 00:23 | 29.99343 | -95.37732 | 686 ft | 122 kts | 98° |
| 2026-04-23 00:23 | 29.99349 | -95.36794 | 400 ft | 111 kts | 97° |
| 2026-04-23 00:24 | 29.99345 | -95.35954 | 198 ft | 99 kts | 95° |
| 2026-04-23 00:24 | 29.99344 | -95.35137 | 114 ft | 98 kts | 95° |
| 2026-04-23 00:24 | 29.99341 | -95.34460 | 103 ft | 67 kts | 89° |
| 2026-04-23 00:24 | 29.99325 | -95.34014 | 103 ft | 44 kts | 104° |
| 2026-04-23 00:25 | 29.99199 | -95.33734 | 105 ft | 29 kts | 122° |
| 2026-04-23 00:25 | 29.99097 | -95.33700 | 105 ft | 10 kts | 228° |
| 2026-04-23 00:25 | 29.99089 | -95.33776 | 105 ft | 11 kts | 270° |
| 2026-04-23 00:25 | 29.99090 | -95.33880 | 105 ft | 15 kts | 270° |
| 2026-04-23 00:26 | 29.99090 | -95.34013 | 105 ft | 18 kts | 270° |
| 2026-04-23 00:26 | 29.99086 | -95.34168 | 105 ft | 21 kts | 268° |
| 2026-04-23 00:26 | 29.99083 | -95.34346 | 105 ft | 23 kts | 272° |
| 2026-04-23 00:26 | 29.99085 | -95.34536 | 105 ft | 25 kts | 270° |
| 2026-04-23 00:27 | 29.99083 | -95.34741 | 105 ft | 25 kts | 271° |
| 2026-04-23 00:27 | 29.99089 | -95.34954 | 105 ft | 28 kts | 271° |
| 2026-04-23 00:27 | 29.99089 | -95.35187 | 105 ft | 28 kts | 269° |
| 2026-04-23 00:27 | 29.99010 | -95.35277 | 105 ft | 18 kts | 179° |
| 2026-04-23 00:28 | 29.98875 | -95.35275 | 105 ft | 20 kts | 180° |
| 2026-04-23 00:28 | 29.98728 | -95.35275 | 105 ft | 22 kts | 180° |
| 2026-04-23 00:28 | 29.98568 | -95.35275 | 105 ft | 24 kts | 179° |
| 2026-04-23 00:28 | 29.98424 | -95.35228 | 105 ft | 22 kts | 153° |
| 2026-04-23 00:29 | 29.98381 | -95.35141 | 105 ft | 12 kts | 89° |
| 2026-04-23 00:29 | 29.98382 | -95.35031 | 105 ft | 15 kts | 91° |
| 2026-04-23 00:29 | 29.98378 | -95.34898 | 105 ft | 18 kts | 93° |
| 2026-04-23 00:29 | 29.98401 | -95.34811 | 105 ft | 9 kts | 15° |
| 2026-04-23 00:30 | 29.98466 | -95.34775 | 104 ft | 11 kts | 43° |
| 2026-04-23 00:30 | 29.98501 | -95.34737 | 105 ft | 1 kts | 44° |
| 2026-04-23 00:30 | 29.98502 | -95.34737 | 105 ft | 0 kts | 44° |